sensor_id;sensor_type;location;lat;lon;timestamp;pressure;altitude;pressure_sealevel;temperature;humidity
70437;BME280;57877;39.750;-104.894;2023-04-08T00:01:30;83586.28;;;20.74;4.40
70437;BME280;57877;39.750;-104.894;2023-04-08T00:03:56;83584.26;;;20.43;4.58
70437;BME280;57877;39.750;-104.894;2023-04-08T00:06:22;83584.68;;;20.36;4.67
70437;BME280;57877;39.750;-104.894;2023-04-08T00:08:48;83585.99;;;21.02;4.45
70437;BME280;57877;39.750;-104.894;2023-04-08T00:11:14;83582.52;;;21.08;4.31
70437;BME280;57877;39.750;-104.894;2023-04-08T00:13:40;83584.47;;;21.42;4.27
70437;BME280;57877;39.750;-104.894;2023-04-08T00:16:06;83583.71;;;20.88;4.62
70437;BME280;57877;39.750;-104.894;2023-04-08T00:18:32;83583.17;;;20.55;4.62
70437;BME280;57877;39.750;-104.894;2023-04-08T00:20:58;83581.37;;;20.85;4.75
70437;BME280;57877;39.750;-104.894;2023-04-08T00:23:24;83579.40;;;20.48;4.56
70437;BME280;57877;39.750;-104.894;2023-04-08T00:25:50;83578.12;;;19.84;5.00
70437;BME280;57877;39.750;-104.894;2023-04-08T00:28:16;83582.17;;;20.65;4.74
70437;BME280;57877;39.750;-104.894;2023-04-08T00:30:42;83582.79;;;19.14;5.48
70437;BME280;57877;39.750;-104.894;2023-04-08T00:33:08;83581.46;;;19.32;5.51
70437;BME280;57877;39.750;-104.894;2023-04-08T00:35:34;83582.67;;;18.62;5.82
70437;BME280;57877;39.750;-104.894;2023-04-08T00:38:00;83577.30;;;19.42;5.43
70437;BME280;57877;39.750;-104.894;2023-04-08T00:40:26;83574.57;;;19.24;5.65
70437;BME280;57877;39.750;-104.894;2023-04-08T00:42:56;83577.11;;;18.97;5.91
70437;BME280;57877;39.750;-104.894;2023-04-08T00:45:18;83579.46;;;19.04;6.10
70437;BME280;57877;39.750;-104.894;2023-04-08T00:47:44;83571.72;;;17.56;6.62
70437;BME280;57877;39.750;-104.894;2023-04-08T00:50:10;83577.78;;;17.18;7.02
70437;BME280;57877;39.750;-104.894;2023-04-08T00:52:36;83582.71;;;17.34;6.99
70437;BME280;57877;39.750;-104.894;2023-04-08T00:55:03;83584.02;;;17.27;6.80
70437;BME280;57877;39.750;-104.894;2023-04-08T00:57:28;83578.46;;;18.06;6.39
70437;BME280;57877;39.750;-104.894;2023-04-08T00:59:54;83575.54;;;18.66;6.18
70437;BME280;57877;39.750;-104.894;2023-04-08T01:02:28;83574.57;;;18.32;6.12
70437;BME280;57877;39.750;-104.894;2023-04-08T01:04:51;83577.15;;;18.44;6.03
70437;BME280;57877;39.750;-104.894;2023-04-08T01:07:17;83578.30;;;18.82;6.06
70437;BME280;57877;39.750;-104.894;2023-04-08T01:09:40;83576.76;;;18.47;6.20
70437;BME280;57877;39.750;-104.894;2023-04-08T01:12:07;83576.95;;;18.37;6.12
70437;BME280;57877;39.750;-104.894;2023-04-08T01:14:33;83575.02;;;18.96;6.02
70437;BME280;57877;39.750;-104.894;2023-04-08T01:16:58;83579.53;;;19.08;6.30
70437;BME280;57877;39.750;-104.894;2023-04-08T01:19:27;83580.01;;;19.21;5.98
70437;BME280;57877;39.750;-104.894;2023-04-08T01:21:48;83581.83;;;18.93;6.11
70437;BME280;57877;39.750;-104.894;2023-04-08T01:24:19;83582.03;;;19.03;6.20
70437;BME280;57877;39.750;-104.894;2023-04-08T01:26:40;83590.29;;;18.39;6.12
70437;BME280;57877;39.750;-104.894;2023-04-08T01:29:06;83587.83;;;18.35;7.02
70437;BME280;57877;39.750;-104.894;2023-04-08T01:31:32;83591.73;;;18.16;7.76
70437;BME280;57877;39.750;-104.894;2023-04-08T01:33:59;83592.54;;;17.34;8.33
70437;BME280;57877;39.750;-104.894;2023-04-08T01:36:23;83594.73;;;17.30;8.36
70437;BME280;57877;39.750;-104.894;2023-04-08T01:38:50;83599.06;;;17.85;8.50
70437;BME280;57877;39.750;-104.894;2023-04-08T01:41:17;83603.51;;;16.62;9.15
70437;BME280;57877;39.750;-104.894;2023-04-08T01:43:43;83604.43;;;17.12;8.94
70437;BME280;57877;39.750;-104.894;2023-04-08T01:46:07;83607.66;;;17.11;9.24
70437;BME280;57877;39.750;-104.894;2023-04-08T01:48:34;83606.98;;;16.34;9.64
70437;BME280;57877;39.750;-104.894;2023-04-08T01:50:59;83608.20;;;16.50;9.89
70437;BME280;57877;39.750;-104.894;2023-04-08T01:53:25;83610.04;;;16.47;9.79
70437;BME280;57877;39.750;-104.894;2023-04-08T01:55:56;83612.14;;;16.83;9.59
70437;BME280;57877;39.750;-104.894;2023-04-08T01:58:21;83615.93;;;16.67;9.64
70437;BME280;57877;39.750;-104.894;2023-04-08T02:00:44;83617.41;;;16.82;9.78
70437;BME280;57877;39.750;-104.894;2023-04-08T02:03:11;83618.69;;;17.23;9.71
70437;BME280;57877;39.750;-104.894;2023-04-08T02:05:35;83622.21;;;17.16;9.59
70437;BME280;57877;39.750;-104.894;2023-04-08T02:08:01;83620.63;;;17.35;9.55
70437;BME280;57877;39.750;-104.894;2023-04-08T02:10:27;83621.59;;;17.38;9.42
70437;BME280;57877;39.750;-104.894;2023-04-08T02:12:53;83623.49;;;17.08;9.47
70437;BME280;57877;39.750;-104.894;2023-04-08T02:15:19;83624.41;;;17.18;9.55
70437;BME280;57877;39.750;-104.894;2023-04-08T02:17:48;83625.89;;;17.10;9.72
70437;BME280;57877;39.750;-104.894;2023-04-08T02:20:16;83627.23;;;17.05;9.79
70437;BME280;57877;39.750;-104.894;2023-04-08T02:22:41;83632.60;;;17.28;9.75
70437;BME280;57877;39.750;-104.894;2023-04-08T02:25:06;83633.77;;;17.01;9.98
70437;BME280;57877;39.750;-104.894;2023-04-08T02:27:29;83636.51;;;16.56;10.13
70437;BME280;57877;39.750;-104.894;2023-04-08T02:29:55;83639.58;;;16.55;10.12
70437;BME280;57877;39.750;-104.894;2023-04-08T02:32:20;83637.03;;;16.50;10.46
70437;BME280;57877;39.750;-104.894;2023-04-08T02:34:44;83641.38;;;16.13;10.48
70437;BME280;57877;39.750;-104.894;2023-04-08T02:37:09;83639.09;;;16.01;10.71
70437;BME280;57877;39.750;-104.894;2023-04-08T02:39:35;83638.68;;;15.59;10.87
70437;BME280;57877;39.750;-104.894;2023-04-08T02:41:59;83641.10;;;16.18;10.75
70437;BME280;57877;39.750;-104.894;2023-04-08T02:44:25;83640.76;;;16.10;10.88
70437;BME280;57877;39.750;-104.894;2023-04-08T02:46:49;83642.09;;;16.27;10.83
70437;BME280;57877;39.750;-104.894;2023-04-08T02:49:14;83641.99;;;15.95;10.80
70437;BME280;57877;39.750;-104.894;2023-04-08T02:51:39;83643.53;;;15.58;10.86
70437;BME280;57877;39.750;-104.894;2023-04-08T02:54:04;83645.30;;;15.71;10.94
70437;BME280;57877;39.750;-104.894;2023-04-08T02:56:29;83646.45;;;15.68;10.98
70437;BME280;57877;39.750;-104.894;2023-04-08T02:58:54;83649.03;;;15.82;11.09
70437;BME280;57877;39.750;-104.894;2023-04-08T03:01:20;83652.84;;;15.55;11.14
70437;BME280;57877;39.750;-104.894;2023-04-08T03:03:45;83651.60;;;15.41;11.23
70437;BME280;57877;39.750;-104.894;2023-04-08T03:06:10;83654.97;;;15.45;11.46
70437;BME280;57877;39.750;-104.894;2023-04-08T03:08:35;83655.06;;;15.40;11.49
70437;BME280;57877;39.750;-104.894;2023-04-08T03:11:00;83655.11;;;15.33;11.43
70437;BME280;57877;39.750;-104.894;2023-04-08T03:13:25;83653.29;;;14.94;11.60
70437;BME280;57877;39.750;-104.894;2023-04-08T03:15:50;83656.60;;;14.94;11.79
70437;BME280;57877;39.750;-104.894;2023-04-08T03:18:15;83655.22;;;14.88;11.92
70437;BME280;57877;39.750;-104.894;2023-04-08T03:20:41;83657.58;;;14.77;11.99
70437;BME280;57877;39.750;-104.894;2023-04-08T03:23:06;83657.66;;;14.57;12.02
70437;BME280;57877;39.750;-104.894;2023-04-08T03:25:31;83657.72;;;14.37;12.17
70437;BME280;57877;39.750;-104.894;2023-04-08T03:27:58;83659.56;;;14.40;12.13
70437;BME280;57877;39.750;-104.894;2023-04-08T03:30:21;83659.36;;;14.46;12.22
70437;BME280;57877;39.750;-104.894;2023-04-08T03:32:47;83660.37;;;14.45;12.19
70437;BME280;57877;39.750;-104.894;2023-04-08T03:35:12;83659.44;;;14.47;12.41
70437;BME280;57877;39.750;-104.894;2023-04-08T03:37:37;83659.93;;;14.52;12.47
70437;BME280;57877;39.750;-104.894;2023-04-08T03:40:02;83657.84;;;14.34;12.43
70437;BME280;57877;39.750;-104.894;2023-04-08T03:42:27;83657.64;;;13.97;12.53
70437;BME280;57877;39.750;-104.894;2023-04-08T03:44:52;83661.09;;;14.44;12.63
70437;BME280;57877;39.750;-104.894;2023-04-08T03:47:17;83665.31;;;13.91;12.90
70437;BME280;57877;39.750;-104.894;2023-04-08T03:49:42;83670.21;;;13.37;13.53
70437;BME280;57877;39.750;-104.894;2023-04-08T03:52:07;83670.85;;;12.96;14.07
70437;BME280;57877;39.750;-104.894;2023-04-08T03:54:32;83671.87;;;12.89;13.84
70437;BME280;57877;39.750;-104.894;2023-04-08T03:56:57;83672.38;;;13.11;13.79
70437;BME280;57877;39.750;-104.894;2023-04-08T03:59:22;83670.32;;;12.83;13.84
70437;BME280;57877;39.750;-104.894;2023-04-08T04:01:48;83671.43;;;12.99;13.90
70437;BME280;57877;39.750;-104.894;2023-04-08T04:04:14;83671.41;;;13.22;13.79
70437;BME280;57877;39.750;-104.894;2023-04-08T04:06:38;83673.50;;;12.94;13.88
70437;BME280;57877;39.750;-104.894;2023-04-08T04:09:03;83672.97;;;13.07;14.01
70437;BME280;57877;39.750;-104.894;2023-04-08T04:11:28;83673.24;;;12.73;14.05
70437;BME280;57877;39.750;-104.894;2023-04-08T04:13:54;83673.16;;;13.13;14.07
70437;BME280;57877;39.750;-104.894;2023-04-08T04:16:18;83674.98;;;12.95;14.16
70437;BME280;57877;39.750;-104.894;2023-04-08T04:18:44;83677.56;;;12.13;14.71
70437;BME280;57877;39.750;-104.894;2023-04-08T04:21:09;83673.01;;;12.82;14.38
70437;BME280;57877;39.750;-104.894;2023-04-08T04:23:34;83675.56;;;12.40;14.54
70437;BME280;57877;39.750;-104.894;2023-04-08T04:25:59;83677.10;;;12.66;14.62
70437;BME280;57877;39.750;-104.894;2023-04-08T04:28:24;83676.67;;;12.06;15.11
70437;BME280;57877;39.750;-104.894;2023-04-08T04:30:49;83678.42;;;11.83;15.28
70437;BME280;57877;39.750;-104.894;2023-04-08T04:33:14;83676.99;;;11.81;15.06
70437;BME280;57877;39.750;-104.894;2023-04-08T04:35:40;83676.26;;;11.58;15.26
70437;BME280;57877;39.750;-104.894;2023-04-08T04:38:05;83675.92;;;12.00;15.20
70437;BME280;57877;39.750;-104.894;2023-04-08T04:40:30;83673.25;;;11.56;15.14
70437;BME280;57877;39.750;-104.894;2023-04-08T04:42:55;83671.22;;;11.55;15.26
70437;BME280;57877;39.750;-104.894;2023-04-08T04:45:20;83672.53;;;11.75;14.97
70437;BME280;57877;39.750;-104.894;2023-04-08T04:47:54;83672.42;;;11.77;14.92
70437;BME280;57877;39.750;-104.894;2023-04-08T04:50:10;83668.33;;;11.77;14.94
70437;BME280;57877;39.750;-104.894;2023-04-08T04:52:35;83666.31;;;11.84;14.88
70437;BME280;57877;39.750;-104.894;2023-04-08T04:55:00;83666.05;;;11.99;14.97
70437;BME280;57877;39.750;-104.894;2023-04-08T04:57:25;83664.75;;;11.63;15.24
70437;BME280;57877;39.750;-104.894;2023-04-08T04:59:51;83666.37;;;12.07;15.26
70437;BME280;57877;39.750;-104.894;2023-04-08T05:02:16;83664.89;;;11.59;15.22
70437;BME280;57877;39.750;-104.894;2023-04-08T05:04:41;83661.68;;;11.46;15.44
70437;BME280;57877;39.750;-104.894;2023-04-08T05:07:07;83660.71;;;11.14;15.53
70437;BME280;57877;39.750;-104.894;2023-04-08T05:09:31;83663.10;;;11.16;15.71
70437;BME280;57877;39.750;-104.894;2023-04-08T05:11:56;83660.56;;;11.07;15.79
70437;BME280;57877;39.750;-104.894;2023-04-08T05:14:21;83659.68;;;11.26;15.88
70437;BME280;57877;39.750;-104.894;2023-04-08T05:16:46;83659.85;;;11.07;16.00
70437;BME280;57877;39.750;-104.894;2023-04-08T05:19:11;83660.08;;;10.91;16.15
70437;BME280;57877;39.750;-104.894;2023-04-08T05:21:36;83658.46;;;11.14;16.19
70437;BME280;57877;39.750;-104.894;2023-04-08T05:24:01;83662.54;;;10.92;16.21
70437;BME280;57877;39.750;-104.894;2023-04-08T05:26:26;83668.10;;;11.26;16.05
70437;BME280;57877;39.750;-104.894;2023-04-08T05:28:51;83669.34;;;10.73;16.47
70437;BME280;57877;39.750;-104.894;2023-04-08T05:31:17;83667.48;;;10.47;16.81
70437;BME280;57877;39.750;-104.894;2023-04-08T05:33:43;83665.98;;;10.73;16.80
70437;BME280;57877;39.750;-104.894;2023-04-08T05:36:09;83664.07;;;10.77;17.08
70437;BME280;57877;39.750;-104.894;2023-04-08T05:38:33;83663.90;;;10.49;17.20
70437;BME280;57877;39.750;-104.894;2023-04-08T05:40:58;83662.90;;;10.81;17.31
70437;BME280;57877;39.750;-104.894;2023-04-08T05:43:23;83663.84;;;10.53;17.57
70437;BME280;57877;39.750;-104.894;2023-04-08T05:45:48;83664.54;;;10.45;17.86
70437;BME280;57877;39.750;-104.894;2023-04-08T05:48:13;83663.31;;;10.50;17.91
70437;BME280;57877;39.750;-104.894;2023-04-08T05:50:38;83663.66;;;10.22;18.09
70437;BME280;57877;39.750;-104.894;2023-04-08T05:53:03;83662.77;;;10.38;18.00
70437;BME280;57877;39.750;-104.894;2023-04-08T05:55:28;83665.28;;;10.30;18.11
70437;BME280;57877;39.750;-104.894;2023-04-08T05:57:53;83663.22;;;10.04;18.33
70437;BME280;57877;39.750;-104.894;2023-04-08T06:00:18;83660.02;;;9.88;18.46
70437;BME280;57877;39.750;-104.894;2023-04-08T06:02:43;83661.06;;;9.70;18.59
70437;BME280;57877;39.750;-104.894;2023-04-08T06:05:09;83656.03;;;9.71;18.76
70437;BME280;57877;39.750;-104.894;2023-04-08T06:07:33;83658.02;;;9.21;18.91
70437;BME280;57877;39.750;-104.894;2023-04-08T06:09:59;83655.56;;;9.22;19.13
70437;BME280;57877;39.750;-104.894;2023-04-08T06:12:23;83656.19;;;9.30;19.04
70437;BME280;57877;39.750;-104.894;2023-04-08T06:14:53;83654.50;;;8.82;19.47
70437;BME280;57877;39.750;-104.894;2023-04-08T06:17:13;83657.28;;;8.98;19.56
70437;BME280;57877;39.750;-104.894;2023-04-08T06:19:40;83658.19;;;8.89;19.49
70437;BME280;57877;39.750;-104.894;2023-04-08T06:22:04;83658.03;;;8.69;19.63
70437;BME280;57877;39.750;-104.894;2023-04-08T06:24:30;83661.30;;;8.74;19.73
70437;BME280;57877;39.750;-104.894;2023-04-08T06:26:55;83663.57;;;9.02;19.76
70437;BME280;57877;39.750;-104.894;2023-04-08T06:29:20;83662.85;;;8.97;19.75
70437;BME280;57877;39.750;-104.894;2023-04-08T06:31:45;83663.97;;;8.28;19.93
70437;BME280;57877;39.750;-104.894;2023-04-08T06:34:10;83667.12;;;9.19;19.66
70437;BME280;57877;39.750;-104.894;2023-04-08T06:36:35;83663.28;;;8.91;19.71
70437;BME280;57877;39.750;-104.894;2023-04-08T06:39:00;83659.59;;;8.74;19.75
70437;BME280;57877;39.750;-104.894;2023-04-08T06:41:25;83658.76;;;9.15;19.59
70437;BME280;57877;39.750;-104.894;2023-04-08T06:43:51;83655.95;;;9.02;19.40
70437;BME280;57877;39.750;-104.894;2023-04-08T06:46:15;83657.55;;;8.56;19.57
70437;BME280;57877;39.750;-104.894;2023-04-08T06:48:40;83654.48;;;9.02;19.65
70437;BME280;57877;39.750;-104.894;2023-04-08T06:51:05;83652.63;;;8.83;19.85
70437;BME280;57877;39.750;-104.894;2023-04-08T06:53:30;83650.74;;;8.96;19.81
70437;BME280;57877;39.750;-104.894;2023-04-08T06:55:55;83648.85;;;8.93;19.72
70437;BME280;57877;39.750;-104.894;2023-04-08T06:58:20;83649.32;;;9.26;19.54
70437;BME280;57877;39.750;-104.894;2023-04-08T07:00:45;83647.87;;;9.02;19.65
70437;BME280;57877;39.750;-104.894;2023-04-08T07:03:11;83646.45;;;9.10;19.60
70437;BME280;57877;39.750;-104.894;2023-04-08T07:05:36;83647.36;;;8.99;19.54
70437;BME280;57877;39.750;-104.894;2023-04-08T07:08:01;83649.11;;;8.94;19.71
70437;BME280;57877;39.750;-104.894;2023-04-08T07:10:26;83651.77;;;9.35;19.81
70437;BME280;57877;39.750;-104.894;2023-04-08T07:12:51;83651.24;;;9.13;19.96
70437;BME280;57877;39.750;-104.894;2023-04-08T07:15:16;83651.77;;;9.13;19.96
70437;BME280;57877;39.750;-104.894;2023-04-08T07:17:41;83651.06;;;8.78;20.33
70437;BME280;57877;39.750;-104.894;2023-04-08T07:20:07;83655.34;;;8.50;20.68
70437;BME280;57877;39.750;-104.894;2023-04-08T07:22:31;83657.20;;;8.11;21.39
70437;BME280;57877;39.750;-104.894;2023-04-08T07:24:56;83658.59;;;7.77;22.39
70437;BME280;57877;39.750;-104.894;2023-04-08T07:27:21;83658.06;;;7.68;22.53
70437;BME280;57877;39.750;-104.894;2023-04-08T07:29:50;83661.03;;;7.47;23.34
70437;BME280;57877;39.750;-104.894;2023-04-08T07:32:11;83668.03;;;7.19;24.01
70437;BME280;57877;39.750;-104.894;2023-04-08T07:34:37;83666.43;;;7.10;24.58
70437;BME280;57877;39.750;-104.894;2023-04-08T07:37:02;83663.04;;;7.16;24.60
70437;BME280;57877;39.750;-104.894;2023-04-08T07:39:27;83661.43;;;6.72;25.39
70437;BME280;57877;39.750;-104.894;2023-04-08T07:41:52;83661.26;;;6.52;25.43
70437;BME280;57877;39.750;-104.894;2023-04-08T07:44:17;83659.32;;;6.56;25.36
70437;BME280;57877;39.750;-104.894;2023-04-08T07:46:42;83658.59;;;7.01;24.91
70437;BME280;57877;39.750;-104.894;2023-04-08T07:49:08;83657.71;;;7.17;24.72
70437;BME280;57877;39.750;-104.894;2023-04-08T07:51:32;83656.34;;;7.26;24.63
70437;BME280;57877;39.750;-104.894;2023-04-08T07:53:58;83654.52;;;7.03;24.64
70437;BME280;57877;39.750;-104.894;2023-04-08T07:56:22;83654.70;;;6.87;24.43
70437;BME280;57877;39.750;-104.894;2023-04-08T07:58:47;83652.59;;;6.74;24.62
70437;BME280;57877;39.750;-104.894;2023-04-08T08:01:17;83646.71;;;7.00;24.47
70437;BME280;57877;39.750;-104.894;2023-04-08T08:03:37;83646.43;;;6.99;24.02
70437;BME280;57877;39.750;-104.894;2023-04-08T08:06:02;83647.00;;;6.71;24.20
70437;BME280;57877;39.750;-104.894;2023-04-08T08:08:27;83648.29;;;6.94;23.93
70437;BME280;57877;39.750;-104.894;2023-04-08T08:10:53;83644.44;;;6.61;23.69
70437;BME280;57877;39.750;-104.894;2023-04-08T08:13:18;83642.78;;;6.98;23.71
70437;BME280;57877;39.750;-104.894;2023-04-08T08:15:43;83641.07;;;7.37;23.17
70437;BME280;57877;39.750;-104.894;2023-04-08T08:18:08;83640.46;;;7.23;23.21
70437;BME280;57877;39.750;-104.894;2023-04-08T08:20:35;83637.45;;;7.47;23.37
70437;BME280;57877;39.750;-104.894;2023-04-08T08:22:58;83636.73;;;7.06;23.83
70437;BME280;57877;39.750;-104.894;2023-04-08T08:25:23;83635.80;;;6.97;23.80
70437;BME280;57877;39.750;-104.894;2023-04-08T08:27:48;83633.14;;;7.44;23.66
70437;BME280;57877;39.750;-104.894;2023-04-08T08:30:13;83635.32;;;6.97;24.03
70437;BME280;57877;39.750;-104.894;2023-04-08T08:32:38;83632.11;;;7.27;23.86
70437;BME280;57877;39.750;-104.894;2023-04-08T08:35:04;83630.16;;;7.10;23.69
70437;BME280;57877;39.750;-104.894;2023-04-08T08:37:28;83631.92;;;7.09;23.51
70437;BME280;57877;39.750;-104.894;2023-04-08T08:39:53;83629.97;;;7.50;23.44
70437;BME280;57877;39.750;-104.894;2023-04-08T08:42:19;83629.00;;;7.17;23.43
70437;BME280;57877;39.750;-104.894;2023-04-08T08:44:43;83626.83;;;7.13;23.53
70437;BME280;57877;39.750;-104.894;2023-04-08T08:47:09;83624.90;;;6.86;23.81
70437;BME280;57877;39.750;-104.894;2023-04-08T08:49:34;83623.35;;;6.95;23.74
70437;BME280;57877;39.750;-104.894;2023-04-08T08:51:59;83622.07;;;7.03;23.87
70437;BME280;57877;39.750;-104.894;2023-04-08T08:54:24;83621.32;;;6.81;24.08
70437;BME280;57877;39.750;-104.894;2023-04-08T08:56:49;83620.47;;;6.65;24.00
70437;BME280;57877;39.750;-104.894;2023-04-08T08:59:14;83621.27;;;6.26;24.31
70437;BME280;57877;39.750;-104.894;2023-04-08T09:01:39;83620.79;;;6.47;24.34
70437;BME280;57877;39.750;-104.894;2023-04-08T09:04:08;83618.89;;;6.38;24.70
70437;BME280;57877;39.750;-104.894;2023-04-08T09:06:29;83618.31;;;6.06;25.32
70437;BME280;57877;39.750;-104.894;2023-04-08T09:08:54;83617.51;;;6.11;25.15
70437;BME280;57877;39.750;-104.894;2023-04-08T09:11:20;83615.79;;;6.05;25.23
70437;BME280;57877;39.750;-104.894;2023-04-08T09:13:45;83615.79;;;6.30;25.18
70437;BME280;57877;39.750;-104.894;2023-04-08T09:16:10;83615.40;;;6.09;25.44
70437;BME280;57877;39.750;-104.894;2023-04-08T09:18:35;83617.06;;;6.08;25.72
70437;BME280;57877;39.750;-104.894;2023-04-08T09:21:00;83617.97;;;5.85;25.98
70437;BME280;57877;39.750;-104.894;2023-04-08T09:25:50;83614.32;;;5.67;25.87
70437;BME280;57877;39.750;-104.894;2023-04-08T09:28:19;83615.37;;;5.83;25.99
70437;BME280;57877;39.750;-104.894;2023-04-08T09:30:40;83612.20;;;5.69;26.09
70437;BME280;57877;39.750;-104.894;2023-04-08T09:33:05;83612.92;;;5.57;26.15
70437;BME280;57877;39.750;-104.894;2023-04-08T09:35:30;83610.87;;;5.00;26.62
70437;BME280;57877;39.750;-104.894;2023-04-08T09:37:56;83612.49;;;5.33;26.28
70437;BME280;57877;39.750;-104.894;2023-04-08T09:40:21;83614.35;;;5.09;26.49
70437;BME280;57877;39.750;-104.894;2023-04-08T09:42:46;83614.60;;;5.26;26.34
70437;BME280;57877;39.750;-104.894;2023-04-08T09:45:11;83614.63;;;5.49;26.05
70437;BME280;57877;39.750;-104.894;2023-04-08T09:47:43;83615.01;;;5.50;25.70
70437;BME280;57877;39.750;-104.894;2023-04-08T09:50:01;83614.03;;;6.00;25.45
70437;BME280;57877;39.750;-104.894;2023-04-08T09:52:32;83614.58;;;5.86;25.34
70437;BME280;57877;39.750;-104.894;2023-04-08T09:54:54;83615.44;;;5.97;25.44
70437;BME280;57877;39.750;-104.894;2023-04-08T09:57:20;83613.95;;;6.10;25.35
70437;BME280;57877;39.750;-104.894;2023-04-08T09:59:50;83610.88;;;5.77;25.27
70437;BME280;57877;39.750;-104.894;2023-04-08T10:02:08;83610.55;;;5.77;25.16
70437;BME280;57877;39.750;-104.894;2023-04-08T10:04:35;83609.38;;;5.93;25.24
70437;BME280;57877;39.750;-104.894;2023-04-08T10:07:03;83610.97;;;5.38;25.67
70437;BME280;57877;39.750;-104.894;2023-04-08T10:09:22;83605.94;;;5.85;25.41
70437;BME280;57877;39.750;-104.894;2023-04-08T10:11:47;83608.06;;;5.75;25.48
70437;BME280;57877;39.750;-104.894;2023-04-08T10:14:11;83603.98;;;5.95;25.24
70437;BME280;57877;39.750;-104.894;2023-04-08T10:16:37;83603.83;;;6.08;24.92
70437;BME280;57877;39.750;-104.894;2023-04-08T10:19:02;83603.68;;;5.99;24.94
70437;BME280;57877;39.750;-104.894;2023-04-08T10:21:32;83606.78;;;5.75;24.93
70437;BME280;57877;39.750;-104.894;2023-04-08T10:23:54;83608.91;;;5.85;24.82
70437;BME280;57877;39.750;-104.894;2023-04-08T10:28:42;83608.51;;;5.69;25.07
70437;BME280;57877;39.750;-104.894;2023-04-08T10:31:12;83612.37;;;5.71;24.97
70437;BME280;57877;39.750;-104.894;2023-04-08T10:33:33;83610.89;;;6.16;24.74
70437;BME280;57877;39.750;-104.894;2023-04-08T10:36:00;83612.60;;;6.20;24.67
70437;BME280;57877;39.750;-104.894;2023-04-08T10:38:22;83610.17;;;5.72;24.57
70437;BME280;57877;39.750;-104.894;2023-04-08T10:40:49;83613.84;;;6.28;24.21
70437;BME280;57877;39.750;-104.894;2023-04-08T10:43:13;83611.06;;;6.50;24.11
70437;BME280;57877;39.750;-104.894;2023-04-08T10:45:38;83610.59;;;5.95;24.28
70437;BME280;57877;39.750;-104.894;2023-04-08T10:50:28;83609.82;;;6.31;23.57
70437;BME280;57877;39.750;-104.894;2023-04-08T10:52:53;83607.89;;;6.52;23.49
70437;BME280;57877;39.750;-104.894;2023-04-08T10:55:23;83608.63;;;6.26;23.36
70437;BME280;57877;39.750;-104.894;2023-04-08T10:57:43;83608.37;;;6.49;23.13
70437;BME280;57877;39.750;-104.894;2023-04-08T11:00:10;83614.06;;;6.46;23.04
70437;BME280;57877;39.750;-104.894;2023-04-08T11:02:33;83614.15;;;6.33;23.05
70437;BME280;57877;39.750;-104.894;2023-04-08T11:04:58;83609.91;;;6.43;22.90
70437;BME280;57877;39.750;-104.894;2023-04-08T11:07:25;83614.69;;;6.39;22.96
70437;BME280;57877;39.750;-104.894;2023-04-08T11:09:48;83616.76;;;6.68;22.61
70437;BME280;57877;39.750;-104.894;2023-04-08T11:12:15;83616.17;;;6.40;22.60
70437;BME280;57877;39.750;-104.894;2023-04-08T11:14:40;83616.31;;;6.41;22.32
70437;BME280;57877;39.750;-104.894;2023-04-08T11:17:04;83617.49;;;6.41;22.25
70437;BME280;57877;39.750;-104.894;2023-04-08T11:19:29;83616.94;;;6.10;22.45
70437;BME280;57877;39.750;-104.894;2023-04-08T11:21:54;83615.72;;;5.83;22.35
70437;BME280;57877;39.750;-104.894;2023-04-08T11:24:21;83623.15;;;6.05;22.42
70437;BME280;57877;39.750;-104.894;2023-04-08T11:26:44;83622.58;;;6.15;22.28
70437;BME280;57877;39.750;-104.894;2023-04-08T11:29:10;83619.48;;;6.21;22.05
70437;BME280;57877;39.750;-104.894;2023-04-08T11:31:35;83619.49;;;6.23;22.17
70437;BME280;57877;39.750;-104.894;2023-04-08T11:33:59;83618.26;;;6.51;21.82
70437;BME280;57877;39.750;-104.894;2023-04-08T11:36:24;83619.30;;;6.38;21.45
70437;BME280;57877;39.750;-104.894;2023-04-08T11:38:50;83617.93;;;6.10;21.53
70437;BME280;57877;39.750;-104.894;2023-04-08T11:41:15;83621.09;;;6.25;21.59
70437;BME280;57877;39.750;-104.894;2023-04-08T11:46:09;83623.75;;;6.71;21.46
70437;BME280;57877;39.750;-104.894;2023-04-08T11:48:30;83621.15;;;6.43;21.42
70437;BME280;57877;39.750;-104.894;2023-04-08T11:51:03;83621.65;;;6.86;21.43
70437;BME280;57877;39.750;-104.894;2023-04-08T11:53:23;83618.56;;;6.39;21.45
70437;BME280;57877;39.750;-104.894;2023-04-08T11:55:46;83618.30;;;6.85;21.09
70437;BME280;57877;39.750;-104.894;2023-04-08T11:58:10;83617.19;;;6.99;20.99
70437;BME280;57877;39.750;-104.894;2023-04-08T12:00:36;83616.59;;;6.48;20.90
70437;BME280;57877;39.750;-104.894;2023-04-08T12:03:01;83615.03;;;6.89;20.75
70437;BME280;57877;39.750;-104.894;2023-04-08T12:05:26;83617.54;;;7.03;20.43
70437;BME280;57877;39.750;-104.894;2023-04-08T12:07:51;83616.25;;;6.88;20.29
70437;BME280;57877;39.750;-104.894;2023-04-08T12:10:16;83619.25;;;7.02;20.33
70437;BME280;57877;39.750;-104.894;2023-04-08T12:12:41;83616.39;;;7.02;20.16
70437;BME280;57877;39.750;-104.894;2023-04-08T12:15:08;83622.10;;;6.20;20.30
70437;BME280;57877;39.750;-104.894;2023-04-08T12:17:31;83620.67;;;6.82;19.94
70437;BME280;57877;39.750;-104.894;2023-04-08T12:19:56;83615.75;;;6.83;20.14
70437;BME280;57877;39.750;-104.894;2023-04-08T12:22:22;83617.95;;;6.94;19.96
70437;BME280;57877;39.750;-104.894;2023-04-08T12:24:47;83617.89;;;7.11;20.04
70437;BME280;57877;39.750;-104.894;2023-04-08T12:27:12;83618.05;;;6.41;20.31
70437;BME280;57877;39.750;-104.894;2023-04-08T12:29:37;83621.11;;;6.61;20.36
70437;BME280;57877;39.750;-104.894;2023-04-08T12:32:02;83620.46;;;7.02;20.49
70437;BME280;57877;39.750;-104.894;2023-04-08T12:34:27;83616.40;;;6.90;20.08
70437;BME280;57877;39.750;-104.894;2023-04-08T12:36:52;83614.20;;;7.05;19.76